Time;durP1;ratioP1;P1;durP2;ratioP2;P2;SDS_P1;SDS_P2;PMS_P1;PMS_P2;Temp;Humidity;BMP_temperature;BMP_pressure;BME280_temperature;BME280_humidity;BME280_pressure;Samples;Min_cycle;Max_cycle;Signal;HPM_P1;HPM_P2
2023/11/02 00:00:35;;;;;;;51.83;30.57;;;;;;;5.35;87.48;99505.92;1808568;78;25450;-55
2023/11/02 00:03:05;;;;;;;49.85;30.65;;;;;;;5.34;87.43;99505.66;1827200;78;25454;-50
2023/11/02 00:05:57;;;;;;;46.00;29.05;;;;;;;5.32;87.26;99505.16;1827177;78;27651;-50
2023/11/02 00:08:27;;;;;;;50.33;30.08;;;;;;;5.33;87.70;99505.39;1827147;78;25675;-53
2023/11/02 00:10:54;;;;;;;50.85;28.73;;;;;;;5.29;87.66;99509.21;1825621;78;25447;-52
2023/11/02 00:13:27;;;;;;;45.03;26.75;;;;;;;5.28;87.57;99512.18;1827191;78;25389;-50
2023/11/02 00:15:54;;;;;;;50.28;29.42;;;;;;;5.28;87.97;99517.55;1827274;78;25364;-52
2023/11/02 00:18:22;;;;;;;49.55;28.83;;;;;;;5.27;87.84;99515.97;1827228;78;27079;-49
2023/11/02 00:20:50;;;;;;;43.30;26.25;;;;;;;5.26;87.48;99514.37;1827113;78;25431;-51
2023/11/02 00:23:39;;;;;;;43.42;26.68;;;;;;;5.26;88.35;99516.52;1827120;78;25448;-52
2023/11/02 00:26:06;;;;;;;49.50;28.07;;;;;;;5.27;88.28;99502.56;1827329;78;25426;-50
2023/11/02 00:28:32;;;;;;;46.92;27.93;;;;;;;5.24;87.90;99498.05;1827170;78;25471;-51
2023/11/02 00:31:00;;;;;;;47.80;28.52;;;;;;;5.27;88.61;99495.86;1827134;78;27444;-50
2023/11/02 00:33:26;;;;;;;49.73;28.07;;;;;;;5.26;88.67;99496.41;1827040;78;25373;-51
2023/11/02 00:35:54;;;;;;;45.33;26.40;;;;;;;5.26;88.44;99501.77;1827130;78;25387;-51
2023/11/02 00:38:26;;;;;;;46.13;28.75;;;;;;;5.27;88.93;99499.88;1827094;78;25412;-51
2023/11/02 00:40:54;;;;;;;44.15;27.70;;;;;;;5.27;88.90;99495.30;1827192;78;25420;-51
2023/11/02 00:43:22;;;;;;;40.93;25.90;;;;;;;5.28;88.79;99494.75;1827380;78;27478;-51
2023/11/02 00:45:49;;;;;;;43.92;26.60;;;;;;;5.27;89.03;99493.97;1827032;78;25383;-52
2023/11/02 00:48:29;;;;;;;39.35;24.55;;;;;;;5.28;89.00;99494.75;1827136;78;25416;-50
2023/11/02 00:51:26;;;;;;;38.33;23.75;;;;;;;5.27;89.16;99493.97;1827286;78;25466;-51
2023/11/02 00:53:56;;;;;;;43.38;23.45;;;;;;;5.26;89.33;99487.03;1810153;78;25396;-52
2023/11/02 00:56:29;;;;;;;39.13;23.50;;;;;;;5.27;89.04;99490.50;1808644;78;27463;-50
2023/11/02 00:58:56;;;;;;;35.20;22.67;;;;;;;5.26;89.28;99488.38;1827043;78;25917;-50
2023/11/02 01:01:26;;;;;;;44.98;27.10;;;;;;;5.24;88.71;99483.30;1808770;78;25471;-50
2023/11/02 01:04:03;;;;;;;38.70;24.30;;;;;;;5.25;89.01;99474.70;1827042;78;25710;-51
2023/11/02 01:06:33;;;;;;;44.88;25.65;;;;;;;5.24;89.11;99472.57;1827131;78;25469;-51
2023/11/02 01:09:16;;;;;;;43.02;25.90;;;;;;;5.23;88.97;99472.31;1808733;78;28030;-49
2023/11/02 01:11:42;;;;;;;36.63;23.92;;;;;;;5.23;89.27;99470.97;1825935;78;25432;-52
2023/11/02 01:14:28;;;;;;;41.70;24.98;;;;;;;5.22;89.53;99469.36;1827108;78;25442;-50
2023/11/02 01:16:56;;;;;;;37.55;23.60;;;;;;;5.21;89.15;99463.77;1825796;78;25483;-51
2023/11/02 01:19:49;;;;;;;37.00;22.48;;;;;;;5.18;89.03;99464.34;1808724;78;25553;-50
2023/11/02 01:22:36;;;;;;;37.63;22.60;;;;;;;5.17;89.24;99472.12;1826892;78;27564;-52
2023/11/02 01:25:07;;;;;;;33.35;21.82;;;;;;;5.15;89.38;99466.27;1826560;78;25388;-51
2023/11/02 01:27:33;;;;;;;36.60;22.02;;;;;;;5.16;89.75;99459.02;1827055;78;25391;-51
2023/11/02 01:30:05;;;;;;;45.40;24.02;;;;;;;5.15;90.08;99458.23;1827055;78;25434;-55
2023/11/02 01:32:32;;;;;;;35.73;23.18;;;;;;;5.18;90.15;99460.33;1808292;78;25391;-49
2023/11/02 01:34:58;;;;;;;38.30;22.67;;;;;;;5.17;90.08;99454.70;1827098;78;27987;-54
2023/11/02 01:37:27;;;;;;;40.10;22.02;;;;;;;5.16;90.19;99453.13;1808574;78;25714;-53
2023/11/02 01:40:08;;;;;;;33.42;21.62;;;;;;;5.17;90.32;99451.23;1827209;78;25423;-50
2023/11/02 01:42:47;;;;;;;39.55;21.73;;;;;;;5.16;89.80;99449.11;1825390;78;25688;-51
2023/11/02 01:45:15;;;;;;;37.55;23.25;;;;;;;5.17;89.96;99445.87;1823636;77;25487;-51
2023/11/02 01:48:06;;;;;;;31.60;20.60;;;;;;;5.15;89.92;99442.14;1823858;78;27562;-52
2023/11/02 01:50:37;;;;;;;35.17;21.55;;;;;;;5.14;89.73;99444.59;1823815;78;25326;-50
2023/11/02 01:53:41;;;;;;;35.23;20.65;;;;;;;5.11;90.17;99437.13;1823163;78;25406;-51
2023/11/02 01:56:35;;;;;;;36.17;20.45;;;;;;;5.11;90.51;99434.97;1803358;78;25680;-51
2023/11/02 01:59:19;;;;;;;32.40;20.00;;;;;;;5.10;90.54;99434.18;1823927;78;25456;-49
2023/11/02 02:02:14;;;;;;;32.17;19.20;;;;;;;5.09;90.85;99429.92;1823950;78;27448;-51
2023/11/02 02:04:55;;;;;;;35.88;20.20;;;;;;;5.08;91.15;99424.30;1761877;81;25649;-50
2023/11/02 02:07:32;;;;;;;32.35;20.35;;;;;;;5.08;90.96;99426.20;1761169;81;25458;-51
2023/11/02 02:10:24;;;;;;;29.87;19.42;;;;;;;5.07;90.92;99424.59;1760713;81;25702;-53
2023/11/02 02:13:18;;;;;;;33.23;20.65;;;;;;;5.06;91.18;99423.80;1761911;81;25495;-51
2023/11/02 02:15:56;;;;;;;31.48;20.00;;;;;;;5.05;91.41;99420.31;1761665;79;27477;-50
2023/11/02 02:18:40;;;;;;;31.68;20.35;;;;;;;5.05;91.15;99421.65;1762033;81;25410;-51
2023/11/02 02:21:34;;;;;;;32.15;19.55;;;;;;;5.04;91.34;99421.97;1761594;81;25412;-51
2023/11/02 02:24:08;;;;;;;32.60;19.62;;;;;;;5.03;91.04;99426.52;1761200;81;25404;-50
2023/11/02 02:26:55;;;;;;;31.73;20.52;;;;;;;5.01;91.16;99422.55;1761626;79;25507;-53
2023/11/02 02:29:52;;;;;;;30.55;19.15;;;;;;;5.01;91.64;99428.70;1762113;81;28027;-49
2023/11/02 02:33:09;;;;;;;28.85;18.27;;;;;;;5.01;91.50;99422.55;1699079;84;25930;-51
2023/11/02 02:36:13;;;;;;;26.70;18.12;;;;;;;5.03;92.33;99425.73;1675592;84;25522;-52
2023/11/02 02:38:57;;;;;;;28.42;18.50;;;;;;;5.02;91.59;99423.59;1699276;84;25551;-50
2023/11/02 02:41:25;;;;;;;33.48;19.57;;;;;;;5.02;91.59;99414.74;1698887;84;25506;-50
2023/11/02 02:43:52;;;;;;;29.12;18.25;;;;;;;5.02;91.55;99412.06;1700231;84;28026;-51
2023/11/02 02:46:23;;;;;;;28.30;18.40;;;;;;;5.02;91.67;99405.36;1705414;84;25426;-51
2023/11/02 02:48:49;;;;;;;31.73;18.92;;;;;;;5.01;91.67;99403.23;1705596;84;25441;-50
2023/11/02 02:51:18;;;;;;;30.40;18.10;;;;;;;5.02;91.88;99401.34;1705580;84;25549;-50
2023/11/02 02:53:47;;;;;;;31.33;18.63;;;;;;;5.03;91.80;99401.60;1705877;84;25423;-50
2023/11/02 02:56:14;;;;;;;;;;;;;;;5.04;91.98;99401.86;1708108;84;27464;-52
2023/11/02 02:58:48;;;;;;;26.23;16.57;;;;;;;5.04;92.21;99401.31;1705578;84;25719;-51
2023/11/02 03:01:17;;;;;;;27.32;18.07;;;;;;;5.02;91.92;99404.84;1705121;84;25499;-51
2023/11/02 03:03:46;;;;;;;29.55;19.02;;;;;;;5.02;91.95;99406.17;1705618;84;25611;-50
2023/11/02 03:06:12;;;;;;;29.63;19.23;;;;;;;5.01;91.80;99401.89;1681713;84;25510;-50
2023/11/02 03:08:41;;;;;;;26.42;17.23;;;;;;;5.02;91.96;99397.31;1737304;78;27463;-51
2023/11/02 03:11:13;;;;;;;27.48;17.27;;;;;;;5.00;92.02;99389.56;1830008;78;33183;-51
2023/11/02 03:13:40;;;;;;;26.77;17.23;;;;;;;5.00;92.37;99394.93;1829939;77;25424;-50
2023/11/02 03:16:09;;;;;;;27.75;17.85;;;;;;;5.01;92.38;99399.21;1829879;78;25493;-51
2023/11/02 03:18:39;;;;;;;28.15;18.00;;;;;;;5.02;92.30;99406.70;1829954;78;25434;-50
2023/11/02 03:21:06;;;;;;;29.52;17.75;;;;;;;5.01;92.21;99403.23;1829954;77;27476;-50
2023/11/02 03:24:09;;;;;;;25.80;16.60;;;;;;;5.02;92.40;99397.31;1829902;78;25806;-50
2023/11/02 03:26:44;;;;;;;25.77;16.70;;;;;;;5.04;92.36;99397.84;1828910;77;25391;-51
2023/11/02 03:29:33;;;;;;;30.25;17.73;;;;;;;5.03;92.71;99400.27;1813668;78;25460;-53
2023/11/02 03:32:22;;;;;;;26.87;16.40;;;;;;;5.04;92.53;99403.99;1828994;77;25060;-55
2023/11/02 03:35:12;;;;;;;26.30;17.50;;;;;;;5.03;92.64;99399.70;1830166;78;28073;-54
2023/11/02 03:38:02;;;;;;;26.52;17.57;;;;;;;5.04;92.65;99397.30;1830123;78;25765;-53
2023/11/02 03:40:56;;;;;;;25.30;17.27;;;;;;;5.03;92.66;99388.98;1829861;77;25380;-51
2023/11/02 03:43:27;;;;;;;25.70;17.73;;;;;;;5.03;92.55;99385.52;1829540;77;25479;-50
2023/11/02 03:46:17;;;;;;;36.63;18.10;;;;;;;5.02;92.65;99380.72;1806892;78;25430;-50
2023/11/02 03:48:57;;;;;;;23.50;16.62;;;;;;;5.02;92.77;99373.20;1823998;78;27461;-50
2023/11/02 03:51:41;;;;;;;28.85;16.20;;;;;;;5.00;92.52;99374.83;1822189;78;25434;-51
2023/11/02 03:54:43;;;;;;;24.90;16.67;;;;;;;5.01;92.38;99373.75;1823895;78;25430;-51
2023/11/02 03:57:20;;;;;;;24.50;16.50;;;;;;;4.99;92.37;99367.89;1823498;78;26145;-51
2023/11/02 04:00:09;;;;;;;23.38;15.72;;;;;;;4.98;92.69;99360.14;1824045;78;25371;-53
2023/11/02 04:02:44;;;;;;;28.83;16.90;;;;;;;4.98;92.84;99364.95;1824240;78;27440;-50
2023/11/02 04:05:14;;;;;;;26.68;15.70;;;;;;;4.99;92.68;99364.42;1823323;78;25439;-50
2023/11/02 04:08:06;;;;;;;25.50;16.00;;;;;;;4.98;93.08;99370.31;1803372;78;25439;-51
2023/11/02 04:10:36;;;;;;;26.77;16.35;;;;;;;5.00;93.09;99368.68;1823928;78;25595;-51
2023/11/02 04:13:22;;;;;;;26.50;16.37;;;;;;;4.98;92.97;99367.63;1803419;78;25388;-52
2023/11/02 04:15:53;;;;;;;27.73;16.35;;;;;;;4.99;93.02;99360.41;1823973;78;27469;-52
2023/11/02 04:18:20;;;;;;;26.23;15.58;;;;;;;4.99;93.29;99361.75;1823874;78;25424;-51
2023/11/02 04:20:51;;;;;;;24.98;15.85;;;;;;;4.99;93.34;99353.16;1823949;78;25450;-52
2023/11/02 04:23:14;;;;;;;27.82;16.10;;;;;;;5.00;93.50;99350.70;1823405;78;25467;-51
2023/11/02 04:25:41;;;;;;;25.95;16.00;;;;;;;5.00;93.58;99350.70;1823960;78;25435;-52
2023/11/02 04:28:07;;;;;;;24.57;15.38;;;;;;;5.00;93.38;99352.05;1823936;78;28178;-50
2023/11/02 04:30:33;;;;;;;22.60;14.28;;;;;;;5.00;93.49;99349.92;1823851;78;25368;-54
2023/11/02 04:33:00;;;;;;;25.90;16.25;;;;;;;5.01;93.57;99359.56;1758777;78;25453;-51
2023/11/02 04:35:26;;;;;;;24.18;14.30;;;;;;;5.01;93.50;99354.20;1823914;78;25462;-53
2023/11/02 04:38:08;;;;;;;23.70;14.43;;;;;;;5.01;93.66;99346.16;1823968;78;25366;-51
2023/11/02 04:40:35;;;;;;;25.32;15.88;;;;;;;5.03;93.62;99348.78;1823947;78;28049;-50
2023/11/02 04:43:03;;;;;;;25.40;14.55;;;;;;;5.01;93.43;99345.61;1823843;78;25350;-49
2023/11/02 04:45:31;;;;;;;23.65;14.78;;;;;;;5.02;93.57;99339.70;1823813;78;25379;-51
2023/11/02 04:47:57;;;;;;;22.90;15.53;;;;;;;5.01;93.38;99344.27;1823882;78;25463;-51
2023/11/02 04:50:24;;;;;;;24.77;14.53;;;;;;;5.00;93.30;99339.20;1803329;78;25376;-51
2023/11/02 04:52:51;;;;;;;21.42;14.58;;;;;;;5.02;93.79;99335.67;1823878;78;27438;-50
2023/11/02 04:55:17;;;;;;;24.72;14.35;;;;;;;5.00;93.80;99327.92;1803255;78;25611;-50
2023/11/02 04:57:43;;;;;;;24.12;14.43;;;;;;;5.02;93.99;99326.30;1823929;78;25439;-52
2023/11/02 05:00:11;;;;;;;29.87;15.90;;;;;;;5.02;94.02;99322.27;1823890;78;25471;-52
2023/11/02 05:02:37;;;;;;;24.67;14.25;;;;;;;5.02;94.07;99320.41;1823955;78;25461;-52
2023/11/02 05:05:05;;;;;;;24.47;14.83;;;;;;;5.03;94.20;99317.96;1803413;78;27547;-52
2023/11/02 05:07:31;;;;;;;24.18;14.53;;;;;;;5.04;94.06;99328.94;1823831;78;25520;-51
2023/11/02 05:09:58;;;;;;;23.35;14.20;;;;;;;5.02;93.87;99315.57;1823912;78;25442;-51
2023/11/02 05:12:24;;;;;;;19.70;13.32;;;;;;;5.02;93.68;99318.25;1823860;78;26014;-52
2023/11/02 05:14:51;;;;;;;24.43;13.65;;;;;;;5.00;93.47;99315.86;1823930;78;25475;-51
2023/11/02 05:17:17;;;;;;;26.48;14.58;;;;;;;5.00;93.60;99319.09;1823707;78;28045;-52
2023/11/02 05:19:43;;;;;;;22.67;14.45;;;;;;;4.99;93.93;99311.61;1803034;78;25396;-52
2023/11/02 05:22:10;;;;;;;20.32;13.70;;;;;;;4.99;93.76;99305.47;1823516;78;25427;-52
2023/11/02 05:24:36;;;;;;;20.35;13.32;;;;;;;4.99;93.92;99309.48;1823825;78;26019;-51
2023/11/02 05:27:03;;;;;;;21.75;13.95;;;;;;;4.98;93.85;99311.91;1823917;78;25407;-52
2023/11/02 05:29:29;;;;;;;23.12;13.75;;;;;;;4.99;93.82;99317.52;1803256;78;27478;-53
2023/11/02 05:31:56;;;;;;;23.12;13.78;;;;;;;4.98;93.83;99312.69;1823822;78;25425;-53
2023/11/02 05:34:22;;;;;;;21.90;13.95;;;;;;;4.97;93.52;99316.48;1823882;78;25382;-50
2023/11/02 05:36:50;;;;;;;19.05;13.08;;;;;;;4.96;93.28;99315.43;1823855;78;25509;-53
2023/11/02 05:39:16;;;;;;;18.48;12.37;;;;;;;4.95;93.74;99315.95;1823905;78;25446;-53
2023/11/02 05:41:43;;;;;;;22.37;13.38;;;;;;;4.96;93.70;99317.55;1823913;78;27481;-50
2023/11/02 05:44:09;;;;;;;25.00;15.58;;;;;;;4.96;93.76;99321.58;1823883;78;25370;-54
2023/11/02 05:46:35;;;;;;;21.87;13.93;;;;;;;4.98;94.03;99326.64;1823454;78;25492;-54
2023/11/02 05:49:02;;;;;;;23.15;13.72;;;;;;;4.99;94.42;99324.22;1823883;78;25528;-54
2023/11/02 05:51:28;;;;;;;26.20;14.55;;;;;;;5.01;94.32;99316.67;1823968;78;25387;-53
2023/11/02 05:53:54;;;;;;;22.45;13.68;;;;;;;5.02;94.42;99321.75;1823886;78;27463;-53
2023/11/02 05:56:20;;;;;;;22.77;14.05;;;;;;;5.02;94.70;99320.93;1823793;78;25357;-51
2023/11/02 05:58:52;;;;;;;23.85;13.90;;;;;;;5.01;94.74;99320.70;1823861;78;25367;-53
2023/11/02 06:01:15;;;;;;;19.05;12.95;;;;;;;5.04;94.76;99313.41;1823264;78;25509;-51
2023/11/02 06:03:41;;;;;;;23.87;14.98;;;;;;;5.03;94.82;99309.13;1823876;78;25361;-51
2023/11/02 06:06:08;;;;;;;20.25;13.20;;;;;;;5.03;94.83;99308.58;1823828;78;27492;-53
2023/11/02 06:08:34;;;;;;;27.02;15.03;;;;;;;5.04;94.92;99309.39;1823778;78;25425;-52
2023/11/02 06:11:00;;;;;;;25.48;14.93;;;;;;;5.05;95.15;99306.39;1823864;78;25400;-55
2023/11/02 06:13:26;;;;;;;23.10;14.55;;;;;;;5.08;95.41;99306.36;1823823;78;26032;-51
2023/11/02 06:15:52;;;;;;;21.52;14.43;;;;;;;5.10;95.37;99298.81;1823885;78;25416;-51
2023/11/02 06:18:18;;;;;;;22.45;15.00;;;;;;;5.12;95.30;99307.90;1823942;78;28167;-51
2023/11/02 06:20:44;;;;;;;25.10;15.15;;;;;;;5.12;95.45;99310.02;1823755;78;25442;-51
2023/11/02 06:23:11;;;;;;;23.05;14.85;;;;;;;5.14;95.54;99303.84;1823849;78;25423;-51
2023/11/02 06:25:37;;;;;;;26.05;15.32;;;;;;;5.16;95.79;99299.50;1823773;78;25424;-51
2023/11/02 06:28:04;;;;;;;23.90;14.53;;;;;;;5.18;95.93;99292.77;1823893;78;25374;-51
2023/11/02 06:30:31;;;;;;;29.00;15.53;;;;;;;5.21;96.00;99290.02;1803310;78;28136;-51
2023/11/02 06:33:00;;;;;;;29.27;15.03;;;;;;;5.24;96.12;99282.73;1823770;78;25403;-51
2023/11/02 06:35:26;;;;;;;22.58;15.18;;;;;;;5.27;96.12;99270.07;1803277;78;25379;-51
2023/11/02 06:38:00;;;;;;;26.48;16.60;;;;;;;5.31;96.45;99277.78;1823808;78;26070;-51
2023/11/02 06:40:28;;;;;;;26.33;15.68;;;;;;;5.33;96.60;99279.61;1823872;78;25386;-51
2023/11/02 06:42:59;;;;;;;26.70;15.72;;;;;;;5.37;96.82;99278.47;1823844;78;27558;-49
2023/11/02 06:45:25;;;;;;;24.52;15.63;;;;;;;5.41;96.89;99276.77;1823631;78;25368;-50
2023/11/02 06:47:52;;;;;;;23.73;14.47;;;;;;;5.48;97.34;99276.37;1823843;78;25480;-52
2023/11/02 06:50:18;;;;;;;24.92;14.60;;;;;;;5.54;98.00;99268.47;1823795;78;25432;-54
2023/11/02 06:52:45;;;;;;;21.55;14.90;;;;;;;5.58;97.91;99265.42;1823847;78;25451;-49
2023/11/02 06:55:11;;;;;;;22.70;14.78;;;;;;;5.64;98.22;99266.92;1823806;78;28076;-52
2023/11/02 06:57:37;;;;;;;22.32;14.40;;;;;;;5.71;98.48;99255.78;1823745;78;25366;-51
2023/11/02 07:00:09;;;;;;;22.15;13.88;;;;;;;5.79;98.68;99253.17;1803309;78;25410;-54
2023/11/02 07:02:33;;;;;;;;;;;;;;;5.89;98.97;99256.71;1805666;78;25488;-54
2023/11/02 07:04:59;;;;;;;22.17;13.62;;;;;;;5.98;98.96;99263.78;1823912;78;25387;-55
2023/11/02 07:07:25;;;;;;;21.15;13.70;;;;;;;6.07;99.17;99255.80;1824066;78;27522;-52
2023/11/02 07:09:52;;;;;;;21.20;13.43;;;;;;;6.17;99.31;99254.21;1823949;78;25357;-53
2023/11/02 07:12:18;;;;;;;20.90;13.05;;;;;;;6.27;99.34;99250.50;1823992;78;25388;-51
2023/11/02 07:14:46;;;;;;;22.95;13.60;;;;;;;6.43;99.44;99251.47;1803305;78;25474;-50
2023/11/02 07:17:14;;;;;;;19.55;13.53;;;;;;;6.60;99.43;99253.47;1824025;78;25423;-52
2023/11/02 07:19:40;;;;;;;20.23;13.53;;;;;;;6.80;99.62;99247.56;1823982;78;27414;-50
2023/11/02 07:22:06;;;;;;;21.17;12.82;;;;;;;7.09;100.00;99247.05;1823904;78;25379;-52
2023/11/02 07:24:32;;;;;;;22.00;13.55;;;;;;;7.44;100.00;99240.97;1823962;78;25547;-51
2023/11/02 07:40:32;;;;;;;17.85;11.15;;;;;;;9.62;99.07;99216.25;1924543;74;34744;-51
2023/11/02 07:42:59;;;;;;;14.90;11.15;;;;;;;9.88;98.65;99214.69;1894797;75;25531;-50
2023/11/02 07:45:25;;;;;;;17.17;10.63;;;;;;;10.20;96.72;99207.48;1894899;75;28367;-50
2023/11/02 07:47:52;;;;;;;17.48;10.75;;;;;;;10.58;98.40;99203.81;1894757;75;25561;-51
2023/11/02 07:50:19;;;;;;;14.55;10.65;;;;;;;10.97;95.54;99202.39;1894852;75;25535;-51
2023/11/02 07:52:45;;;;;;;13.45;9.28;;;;;;;11.36;95.16;99207.45;1894822;75;25517;-52
2023/11/02 07:55:11;;;;;;;11.78;8.68;;;;;;;11.58;91.30;99205.60;1894909;75;25393;-50
2023/11/02 07:57:37;;;;;;;14.28;9.68;;;;;;;11.89;90.61;99208.80;1860499;75;27528;-50
2023/11/02 08:00:06;;;;;;;13.03;8.40;;;;;;;12.21;91.83;99218.40;1855607;77;25538;-50
2023/11/02 08:02:34;;;;;;;11.65;8.38;;;;;;;12.53;90.67;99211.12;1822281;78;25487;-52
2023/11/02 08:05:02;;;;;;;14.75;7.78;;;;;;;13.12;91.77;99210.83;1822071;78;25574;-51
2023/11/02 08:07:29;;;;;;;12.45;7.70;;;;;;;13.58;88.17;99204.89;1855713;77;25469;-51
2023/11/02 08:09:55;;;;;;;12.63;7.72;;;;;;;13.67;82.85;99209.55;1822134;78;27449;-51
2023/11/02 08:12:21;;;;;;;10.80;7.92;;;;;;;13.64;82.27;99206.20;1855581;77;25550;-50
2023/11/02 08:14:49;;;;;;;14.73;7.50;;;;;;;13.63;80.45;99201.90;1822132;78;25440;-51
2023/11/02 08:17:17;;;;;;;10.85;6.87;;;;;;;13.80;80.80;99195.27;1855651;77;25364;-52
2023/11/02 08:19:47;;;;;;;11.30;6.85;;;;;;;14.04;80.24;99192.83;1822162;78;25572;-52
2023/11/02 08:22:13;;;;;;;8.60;6.58;;;;;;;14.24;79.70;99196.90;1855686;77;27548;-50
2023/11/02 08:24:39;;;;;;;9.68;6.87;;;;;;;14.60;79.69;99186.69;1822026;78;25777;-50
2023/11/02 08:27:06;;;;;;;12.75;6.55;;;;;;;14.84;77.59;99186.30;1855666;77;25516;-50
2023/11/02 08:29:35;;;;;;;10.25;6.75;;;;;;;15.27;79.44;99177.99;1822081;78;25549;-50
2023/11/02 08:32:03;;;;;;;10.32;6.30;;;;;;;15.98;79.53;99169.20;1855714;77;25630;-50
2023/11/02 08:34:29;;;;;;;7.47;5.97;;;;;;;16.37;75.79;99175.06;1822109;78;27531;-51
2023/11/02 08:36:55;;;;;;;7.00;5.50;;;;;;;16.34;73.30;99171.71;1855569;77;25779;-53
2023/11/02 08:39:22;;;;;;;8.08;6.12;;;;;;;16.18;71.23;99161.04;1821970;78;25453;-50
2023/11/02 08:41:49;;;;;;;7.55;5.47;;;;;;;16.02;70.93;99159.09;1855605;77;25449;-52
2023/11/02 08:44:15;;;;;;;7.87;5.83;;;;;;;15.93;71.41;99160.77;1822177;78;25556;-55
2023/11/02 08:46:41;;;;;;;7.60;6.00;;;;;;;16.08;69.90;99152.16;1855700;77;27465;-55
2023/11/02 08:49:07;;;;;;;11.80;5.53;;;;;;;16.00;70.98;99152.66;1822077;78;25608;-55
2023/11/02 08:51:34;;;;;;;6.95;5.30;;;;;;;15.99;68.70;99153.83;1855169;77;25592;-51
2023/11/02 08:54:02;;;;;;;9.58;5.75;;;;;;;16.05;69.65;99147.45;1821521;78;25511;-53
2023/11/02 08:56:28;;;;;;;6.75;5.42;;;;;;;16.31;70.34;99147.92;1855019;77;25562;-52
2023/11/02 08:58:55;;;;;;;5.80;4.65;;;;;;;16.55;69.15;99147.95;1821447;78;27502;-54
2023/11/02 09:01:26;;;;;;;6.30;4.97;;;;;;;16.84;68.20;99135.08;1854924;77;25430;-51
2023/11/02 09:03:56;;;;;;;10.70;5.30;;;;;;;17.04;67.42;99133.69;1821559;78;25519;-52
2023/11/02 09:06:25;;;;;;;7.75;4.92;;;;;;;17.13;67.58;99123.81;1855006;77;25525;-51
2023/11/02 09:08:56;;;;;;;6.22;4.97;;;;;;;17.71;69.62;99125.64;1821817;78;25385;-52
2023/11/02 09:11:21;;;;;;;5.22;4.53;;;;;;;18.14;65.71;99109.17;1854555;77;27465;-52
2023/11/02 09:13:47;;;;;;;5.53;4.42;;;;;;;18.37;65.33;99102.75;1821415;78;25434;-53
2023/11/02 09:16:14;;;;;;;6.70;4.60;;;;;;;18.92;65.00;99104.89;1855020;77;25427;-52
2023/11/02 09:18:40;;;;;;;10.43;4.87;;;;;;;19.34;61.59;99104.00;1821445;78;25411;-52
2023/11/02 09:21:08;;;;;;;8.20;4.40;;;;;;;19.31;61.57;99091.68;1855049;77;25524;-55
2023/11/02 09:23:34;;;;;;;6.33;4.42;;;;;;;19.54;59.91;99077.47;1821509;78;28035;-52
2023/11/02 09:26:03;;;;;;;7.75;4.17;;;;;;;19.86;60.46;99074.58;1854937;77;25670;-52
2023/11/02 09:28:29;;;;;;;7.05;4.00;;;;;;;20.50;59.75;99074.70;1821508;78;25361;-54
2023/11/02 09:30:55;;;;;;;5.45;3.95;;;;;;;20.82;56.33;99079.73;1855017;77;25391;-51
2023/11/02 09:33:21;;;;;;;5.53;3.50;;;;;;;20.61;54.65;99088.34;1821481;78;25625;-55
2023/11/02 09:35:48;;;;;;;4.35;3.70;;;;;;;20.80;56.23;99083.48;1855027;77;28446;-51
2023/11/02 09:38:15;;;;;;;5.42;3.80;;;;;;;20.97;53.77;99077.02;1821438;78;25754;-52
2023/11/02 09:40:41;;;;;;;3.55;3.25;;;;;;;21.11;53.20;99067.84;1859818;77;25831;-53
2023/11/02 09:43:08;;;;;;;6.37;3.67;;;;;;;21.28;54.13;99053.69;1827523;78;25447;-54
2023/11/02 09:45:36;;;;;;;5.72;3.80;;;;;;;21.39;53.50;99057.10;1830108;77;25504;-54
2023/11/02 09:48:04;;;;;;;5.90;3.67;;;;;;;21.69;53.82;99052.02;1827776;78;27445;-54
2023/11/02 09:50:31;;;;;;;4.42;3.37;;;;;;;21.95;51.90;99048.50;1829976;77;25655;-54
2023/11/02 09:52:58;;;;;;;5.37;3.15;;;;;;;21.95;52.70;99055.38;1827556;78;25601;-55
2023/11/02 09:55:25;;;;;;;5.67;3.00;;;;;;;22.33;50.26;99050.30;1861270;77;25869;-53
2023/11/02 09:57:52;;;;;;;7.67;3.22;;;;;;;22.82;51.04;99048.47;1827586;78;25434;-55
2023/11/02 10:00:19;;;;;;;5.92;2.80;;;;;;;23.55;50.87;99039.73;1861236;77;27185;-52
2023/11/02 10:02:48;;;;;;;4.65;3.05;;;;;;;24.53;49.46;99039.00;1827434;78;25548;-56
2023/11/02 10:05:17;;;;;;;3.25;2.55;;;;;;;24.84;46.12;99040.61;1861416;77;25374;-54
2023/11/02 10:07:44;;;;;;;4.08;2.87;;;;;;;24.97;45.05;99028.98;1827673;78;26076;-55
2023/11/02 10:10:13;;;;;;;6.03;2.77;;;;;;;25.13;45.61;99023.98;1830559;77;25640;-58
2023/11/02 10:12:40;;;;;;;;;;;;;;;25.37;45.36;99033.41;1830268;78;28036;-56
2023/11/02 10:15:11;;;;;;;4.47;2.90;;;;;;;25.11;42.86;99017.50;1861242;77;25617;-55
2023/11/02 10:17:40;;;;;;;5.40;2.67;;;;;;;24.95;44.74;99016.97;1798079;78;25616;-53
2023/11/02 10:20:13;;;;;;;3.15;2.55;;;;;;;24.67;43.63;99009.46;1861374;77;25597;-55
2023/11/02 10:22:44;;;;;;;4.35;2.75;;;;;;;24.24;42.33;99007.95;1826704;78;25385;-54
2023/11/02 10:25:14;;;;;;;5.10;2.02;;;;;;;23.91;42.87;98998.15;1861320;77;27539;-54
2023/11/02 10:27:44;;;;;;;4.72;3.02;;;;;;;23.92;44.20;98993.55;1797557;78;25624;-51
2023/11/02 10:30:13;;;;;;;2.87;2.60;;;;;;;23.86;43.67;98979.50;1861269;77;25539;-53
2023/11/02 10:32:39;;;;;;;3.80;2.42;;;;;;;23.33;43.05;98981.48;1827645;78;31198;-54
2023/11/02 10:35:08;;;;;;;3.85;2.67;;;;;;;22.54;43.43;98976.94;1861324;77;25608;-51
2023/11/02 10:37:36;;;;;;;3.22;2.35;;;;;;;21.94;43.23;98973.22;1827797;78;28076;-53
2023/11/02 10:40:05;;;;;;;3.25;2.58;;;;;;;21.31;43.98;98984.73;1854980;77;25602;-52
2023/11/02 10:42:33;;;;;;;2.80;2.58;;;;;;;20.83;45.01;98970.02;1746789;81;25421;-53
2023/11/02 10:45:04;;;;;;;5.22;2.85;;;;;;;20.82;46.28;98971.99;1770590;79;25702;-54
2023/11/02 10:47:32;;;;;;;4.17;2.42;;;;;;;20.80;45.12;98979.08;1801769;79;25608;-55
2023/11/02 10:50:00;;;;;;;4.72;2.67;;;;;;;20.48;46.85;98978.78;1801722;79;27481;-53
2023/11/02 10:52:44;;;;;;;3.47;2.60;;;;;;;20.11;46.86;98971.49;1801637;79;25633;-54
2023/11/02 10:55:26;;;;;;;3.80;2.20;;;;;;;20.22;48.31;98967.27;1801314;79;25477;-52
2023/11/02 10:57:53;;;;;;;3.65;2.45;;;;;;;20.43;47.41;98968.25;1801751;79;25609;-53
2023/11/02 11:00:24;;;;;;;3.70;2.52;;;;;;;20.77;48.10;98965.58;1801717;79;25412;-55
2023/11/02 11:02:51;;;;;;;5.08;2.62;;;;;;;21.20;46.41;98958.77;1801715;79;28221;-53
2023/11/02 11:05:19;;;;;;;5.95;2.70;;;;;;;21.33;45.35;98958.97;1801622;79;25389;-52
2023/11/02 11:07:51;;;;;;;3.95;2.60;;;;;;;21.37;46.07;98945.96;1801700;79;25551;-54
2023/11/02 11:10:15;;;;;;;3.10;2.47;;;;;;;21.37;46.35;98956.36;1800931;79;25545;-55
2023/11/02 11:12:42;;;;;;;3.22;2.45;;;;;;;21.31;45.96;98949.75;1801746;79;25443;-53
2023/11/02 11:15:11;;;;;;;2.58;2.20;;;;;;;21.40;46.35;98932.16;1770206;79;28304;-56
2023/11/02 11:17:43;;;;;;;;;;;;;;;21.55;46.55;98931.36;1804241;79;25580;-51
2023/11/02 11:20:12;;;;;;;6.35;2.40;;;;;;;21.79;45.43;98932.76;1801665;79;25525;-54
2023/11/02 11:22:40;;;;;;;;;;;;;;;21.72;45.92;98929.52;1804340;79;25888;-55
2023/11/02 11:25:07;;;;;;;2.62;2.30;;;;;;;21.79;45.39;98914.88;1801767;79;25395;-54
2023/11/02 11:27:37;;;;;;;3.72;2.37;;;;;;;21.72;45.47;98916.38;1801712;79;27461;-54
2023/11/02 11:30:09;;;;;;;3.60;2.62;;;;;;;21.83;45.39;98921.11;1801602;79;25403;-52
2023/11/02 11:32:37;;;;;;;4.75;2.40;;;;;;;21.97;45.63;98915.95;1764368;81;25553;-56
2023/11/02 11:35:12;;;;;;;2.70;2.50;;;;;;;21.90;44.25;98914.11;1801655;79;25471;-55
2023/11/02 11:37:50;;;;;;;4.70;2.35;;;;;;;21.76;43.75;98917.08;1770386;81;25682;-56
2023/11/02 11:40:30;;;;;;;3.08;2.47;;;;;;;21.63;45.44;98914.92;1810424;78;27459;-52
2023/11/02 11:43:15;;;;;;;4.42;2.50;;;;;;;21.96;45.97;98919.31;1793667;78;25573;-62
2023/11/02 11:45:49;;;;;;;3.70;2.60;;;;;;;22.12;44.60;98910.37;1828769;78;25565;-62
2023/11/02 11:48:36;;;;;;;4.58;2.05;;;;;;;22.28;45.79;98906.19;1828633;78;25638;-59
2023/11/02 11:51:31;;;;;;;3.20;2.33;;;;;;;22.24;44.43;98899.95;1785494;78;25635;-61
2023/11/02 11:54:14;;;;;;;3.30;2.02;;;;;;;22.18;44.87;98898.27;1828686;78;27587;-63
2023/11/02 11:56:43;;;;;;;2.70;2.12;;;;;;;22.31;44.51;98895.10;1795136;78;25627;-63
2023/11/02 11:59:10;;;;;;;5.92;2.15;;;;;;;22.44;44.73;98899.98;1828590;78;25380;-63
2023/11/02 12:01:37;;;;;;;3.40;2.20;;;;;;;22.44;44.57;98898.60;1828580;78;25620;-53